CEB858 RPMZ-RPLL
Flight info
| Callsign | CEB858 |
|---|---|
| Flight time | N/A |
| Altitude | 36000 |
| Route | BURCO1W BURCO W3 IOO B472 IBAGO IBAGO7R |
| Aircraft | A20N/M-SDE2E3FGHIJ1RWXY/LB1 |
Departure
| Time | 2026-04-23 09:31 |
|---|---|
| Airport | Zamboanga International Airport (RPMZ) |
Arrival
| Time | N/A |
|---|---|
| Airport | Ninoy Aquino International Airport (RPLL) |
| Time | Latitude | Longitude | Altitude | Speed | Heading |
|---|---|---|---|---|---|
| 2026-04-23 09:10 | 6.92051 | 122.06186 | 63 ft | 0 kts | 155° |
| 2026-04-23 09:22 | 6.92050 | 122.06187 | 63 ft | 0 kts | 155° |
| 2026-04-23 09:23 | 6.92049 | 122.06190 | 63 ft | 0 kts | 91° |
| 2026-04-23 09:23 | 6.92052 | 122.06193 | 63 ft | 0 kts | 21° |
| 2026-04-23 09:23 | 6.92067 | 122.06186 | 63 ft | 4 kts | 332° |
| 2026-04-23 09:23 | 6.92097 | 122.06170 | 63 ft | 3 kts | 327° |
| 2026-04-23 09:24 | 6.92114 | 122.06141 | 63 ft | 6 kts | 277° |
| 2026-04-23 09:24 | 6.92116 | 122.06101 | 64 ft | 6 kts | 273° |
| 2026-04-23 09:24 | 6.92133 | 122.06059 | 64 ft | 6 kts | 315° |
| 2026-04-23 09:24 | 6.92173 | 122.06023 | 64 ft | 9 kts | 319° |
| 2026-04-23 09:25 | 6.92208 | 122.06007 | 64 ft | 5 kts | 3° |
| 2026-04-23 09:25 | 6.92236 | 122.06036 | 64 ft | 7 kts | 76° |
| 2026-04-23 09:25 | 6.92234 | 122.06093 | 64 ft | 8 kts | 94° |
| 2026-04-23 09:25 | 6.92230 | 122.06157 | 64 ft | 9 kts | 94° |
| 2026-04-23 09:26 | 6.92225 | 122.06230 | 64 ft | 10 kts | 94° |
| 2026-04-23 09:26 | 6.92220 | 122.06310 | 63 ft | 11 kts | 94° |
| 2026-04-23 09:26 | 6.92215 | 122.06395 | 63 ft | 12 kts | 93° |
| 2026-04-23 09:26 | 6.92209 | 122.06485 | 63 ft | 11 kts | 94° |
| 2026-04-23 09:27 | 6.92203 | 122.06567 | 63 ft | 12 kts | 94° |
| 2026-04-23 09:27 | 6.92197 | 122.06657 | 63 ft | 13 kts | 93° |
| 2026-04-23 09:27 | 6.92191 | 122.06750 | 63 ft | 13 kts | 93° |
| 2026-04-23 09:27 | 6.92184 | 122.06848 | 63 ft | 14 kts | 94° |
| 2026-04-23 09:28 | 6.92177 | 122.06923 | 63 ft | 5 kts | 108° |
| 2026-04-23 09:28 | 6.92165 | 122.06964 | 63 ft | 5 kts | 96° |
| 2026-04-23 09:28 | 6.92163 | 122.06998 | 63 ft | 5 kts | 94° |
| 2026-04-23 09:28 | 6.92160 | 122.07040 | 62 ft | 6 kts | 93° |
| 2026-04-23 09:29 | 6.92164 | 122.07081 | 62 ft | 5 kts | 70° |
| 2026-04-23 09:29 | 6.92177 | 122.07116 | 62 ft | 4 kts | 69° |
| 2026-04-23 09:29 | 6.92177 | 122.07124 | 62 ft | 0 kts | 126° |
| 2026-04-23 09:29 | 6.92173 | 122.07123 | 62 ft | 0 kts | 208° |
| 2026-04-23 09:30 | 6.92168 | 122.07107 | 62 ft | 3 kts | 264° |
| 2026-04-23 09:30 | 6.92168 | 122.07094 | 62 ft | 0 kts | 274° |
| 2026-04-23 09:30 | 6.92169 | 122.07085 | 62 ft | 7 kts | 274° |
| 2026-04-23 09:31 | 6.92186 | 122.06822 | 63 ft | 73 kts | 274° |
| 2026-04-23 09:31 | 6.92234 | 122.06087 | 64 ft | 134 kts | 274° |
| 2026-04-23 09:31 | 6.92303 | 122.05039 | 289 ft | 160 kts | 273° |
| 2026-04-23 09:31 | 6.92366 | 122.03893 | 796 ft | 167 kts | 273° |
| 2026-04-23 09:32 | 6.92439 | 122.02710 | 1429 ft | 170 kts | 275° |
| 2026-04-23 09:32 | 6.92520 | 122.01519 | 1998 ft | 174 kts | 276° |
| 2026-04-23 09:32 | 6.92611 | 122.00250 | 2369 ft | 190 kts | 275° |
| 2026-04-23 09:32 | 6.92713 | 121.98837 | 2721 ft | 209 kts | 275° |
| 2026-04-23 09:33 | 6.92822 | 121.97282 | 3048 ft | 233 kts | 275° |
| 2026-04-23 09:33 | 6.92937 | 121.95603 | 3508 ft | 251 kts | 275° |
| 2026-04-23 09:33 | 6.93149 | 121.93793 | 3974 ft | 268 kts | 288° |
| 2026-04-23 09:33 | 6.94188 | 121.92200 | 4607 ft | 273 kts | 323° |
| 2026-04-23 09:34 | 6.95861 | 121.91354 | 5427 ft | 272 kts | 343° |
| 2026-04-23 09:34 | 6.97688 | 121.90723 | 6150 ft | 278 kts | 343° |
| 2026-04-23 09:34 | 6.99508 | 121.90076 | 6884 ft | 282 kts | 342° |
| 2026-04-23 09:34 | 7.01379 | 121.89390 | 7616 ft | 286 kts | 341° |
| 2026-04-23 09:35 | 7.03264 | 121.88686 | 8341 ft | 290 kts | 341° |
| 2026-04-23 09:35 | 7.05155 | 121.87974 | 9044 ft | 293 kts | 341° |
| 2026-04-23 09:35 | 7.07091 | 121.87283 | 9735 ft | 295 kts | 348° |
| 2026-04-23 09:35 | 7.09113 | 121.87225 | 10376 ft | 294 kts | 15° |
| 2026-04-23 09:36 | 7.10991 | 121.88074 | 10901 ft | 299 kts | 39° |
| 2026-04-23 09:36 | 7.12550 | 121.89513 | 11248 ft | 313 kts | 45° |
| 2026-04-23 09:36 | 7.14155 | 121.91109 | 11535 ft | 330 kts | 45° |
| 2026-04-23 09:36 | 7.15826 | 121.92750 | 11806 ft | 345 kts | 45° |
| 2026-04-23 09:37 | 7.17601 | 121.94468 | 12202 ft | 356 kts | 44° |
| 2026-04-23 09:37 | 7.19384 | 121.96177 | 12759 ft | 359 kts | 44° |
| 2026-04-23 09:37 | 7.21223 | 121.97929 | 13352 ft | 362 kts | 44° |
| 2026-04-23 09:37 | 7.23062 | 121.99681 | 13897 ft | 366 kts | 44° |
| 2026-04-23 09:38 | 7.24914 | 122.01446 | 14297 ft | 373 kts | 44° |
| 2026-04-23 09:38 | 7.26811 | 122.03252 | 14764 ft | 378 kts | 44° |
| 2026-04-23 09:38 | 7.28721 | 122.05073 | 15271 ft | 380 kts | 44° |
| 2026-04-23 09:38 | 7.30639 | 122.06902 | 15778 ft | 383 kts | 44° |
| 2026-04-23 09:39 | 7.32626 | 122.08675 | 16249 ft | 386 kts | 37° |
| 2026-04-23 09:39 | 7.34972 | 122.09975 | 16727 ft | 390 kts | 22° |
| 2026-04-23 09:39 | 7.37613 | 122.10658 | 17200 ft | 393 kts | 9° |
| 2026-04-23 09:39 | 7.40352 | 122.10983 | 17640 ft | 397 kts | 7° |
| 2026-04-23 09:40 | 7.43126 | 122.11267 | 18067 ft | 400 kts | 7° |
| 2026-04-23 09:40 | 7.45897 | 122.11550 | 18499 ft | 402 kts | 7° |
| 2026-04-23 09:40 | 7.48684 | 122.11842 | 18939 ft | 404 kts | 8° |
| 2026-04-23 09:40 | 7.51479 | 122.12141 | 19378 ft | 405 kts | 8° |
| 2026-04-23 09:41 | 7.54322 | 122.12449 | 19807 ft | 408 kts | 8° |
| 2026-04-23 09:41 | 7.57133 | 122.12757 | 20227 ft | 409 kts | 8° |
| 2026-04-23 09:41 | 7.60013 | 122.13075 | 20643 ft | 411 kts | 8° |
| 2026-04-23 09:41 | 7.62833 | 122.13387 | 21051 ft | 413 kts | 8° |
| 2026-04-23 09:42 | 7.65722 | 122.13706 | 21459 ft | 415 kts | 8° |
| 2026-04-23 09:42 | 7.68599 | 122.14026 | 21855 ft | 417 kts | 9° |
| 2026-04-23 09:42 | 7.71500 | 122.14349 | 22258 ft | 419 kts | 9° |
| 2026-04-23 09:42 | 7.74395 | 122.14672 | 22642 ft | 421 kts | 9° |
| 2026-04-23 09:43 | 7.77324 | 122.14999 | 23019 ft | 423 kts | 8° |
| 2026-04-23 09:43 | 7.80279 | 122.15330 | 23375 ft | 426 kts | 8° |
| 2026-04-23 09:43 | 7.83281 | 122.15664 | 23723 ft | 429 kts | 8° |
| 2026-04-23 09:43 | 7.86233 | 122.15994 | 24062 ft | 432 kts | 8° |
| 2026-04-23 09:44 | 7.89233 | 122.16328 | 24388 ft | 435 kts | 8° |
| 2026-04-23 09:44 | 7.92268 | 122.16665 | 24724 ft | 438 kts | 8° |
| 2026-04-23 09:44 | 7.95326 | 122.17006 | 25054 ft | 440 kts | 8° |
| 2026-04-23 09:44 | 7.98395 | 122.17347 | 25384 ft | 443 kts | 8° |
| 2026-04-23 09:45 | 8.01480 | 122.17690 | 25702 ft | 445 kts | 7° |
| 2026-04-23 09:45 | 8.04556 | 122.18034 | 26008 ft | 447 kts | 7° |
| 2026-04-23 09:45 | 8.07666 | 122.18379 | 26301 ft | 450 kts | 7° |
| 2026-04-23 09:45 | 8.10818 | 122.18729 | 26600 ft | 452 kts | 7° |
| 2026-04-23 09:46 | 8.14000 | 122.19080 | 26892 ft | 455 kts | 7° |
| 2026-04-23 09:46 | 8.17158 | 122.19430 | 27171 ft | 457 kts | 7° |
| 2026-04-23 09:46 | 8.20334 | 122.19783 | 27424 ft | 460 kts | 7° |
| 2026-04-23 09:46 | 8.23509 | 122.20135 | 27681 ft | 462 kts | 7° |
| 2026-04-23 09:47 | 8.26714 | 122.20491 | 27934 ft | 464 kts | 7° |
| 2026-04-23 09:47 | 8.29939 | 122.20850 | 28164 ft | 466 kts | 7° |
| 2026-04-23 09:47 | 8.33160 | 122.21210 | 28388 ft | 467 kts | 7° |
| 2026-04-23 09:47 | 8.36424 | 122.21573 | 28613 ft | 469 kts | 7° |
| 2026-04-23 09:48 | 8.39671 | 122.21935 | 28836 ft | 470 kts | 7° |
| 2026-04-23 09:48 | 8.42951 | 122.22300 | 29069 ft | 471 kts | 7° |
| 2026-04-23 09:48 | 8.46209 | 122.22662 | 29349 ft | 471 kts | 6° |
| 2026-04-23 09:48 | 8.49473 | 122.23027 | 29627 ft | 470 kts | 6° |
| 2026-04-23 09:49 | 8.52755 | 122.23393 | 29891 ft | 470 kts | 6° |
| 2026-04-23 09:49 | 8.55985 | 122.23753 | 30137 ft | 470 kts | 6° |
| 2026-04-23 09:49 | 8.59267 | 122.24119 | 30380 ft | 470 kts | 6° |
| 2026-04-23 09:49 | 8.62502 | 122.24480 | 30619 ft | 470 kts | 6° |
| 2026-04-23 09:50 | 8.65765 | 122.24844 | 30861 ft | 470 kts | 6° |
| 2026-04-23 09:50 | 8.69052 | 122.25211 | 31103 ft | 470 kts | 6° |
| 2026-04-23 09:50 | 8.72295 | 122.25573 | 31338 ft | 470 kts | 6° |
| 2026-04-23 09:50 | 8.75563 | 122.25938 | 31579 ft | 470 kts | 6° |
| 2026-04-23 09:51 | 8.78780 | 122.26298 | 31816 ft | 469 kts | 6° |
| 2026-04-23 09:51 | 8.82056 | 122.26665 | 32054 ft | 469 kts | 6° |
| 2026-04-23 09:51 | 8.85305 | 122.27028 | 32290 ft | 469 kts | 6° |
| 2026-04-23 09:51 | 8.88568 | 122.27393 | 32515 ft | 469 kts | 6° |
| 2026-04-23 09:52 | 8.91828 | 122.27757 | 32761 ft | 469 kts | 6° |
| 2026-04-23 09:52 | 8.95041 | 122.28117 | 33024 ft | 468 kts | 6° |
| 2026-04-23 09:52 | 8.98278 | 122.28478 | 33309 ft | 467 kts | 6° |
| 2026-04-23 09:52 | 9.01537 | 122.28842 | 33606 ft | 466 kts | 6° |
| 2026-04-23 09:53 | 9.04790 | 122.29206 | 33917 ft | 465 kts | 6° |
| 2026-04-23 09:53 | 9.07984 | 122.29563 | 34185 ft | 465 kts | 6° |
| 2026-04-23 09:53 | 9.11216 | 122.29924 | 34414 ft | 465 kts | 6° |
| 2026-04-23 09:53 | 9.14471 | 122.30286 | 34600 ft | 465 kts | 6° |
| 2026-04-23 09:54 | 9.17713 | 122.30647 | 34783 ft | 466 kts | 6° |
| 2026-04-23 09:54 | 9.20951 | 122.31010 | 34970 ft | 466 kts | 6° |
| 2026-04-23 09:54 | 9.24181 | 122.31371 | 35149 ft | 466 kts | 6° |
| 2026-04-23 09:54 | 9.27410 | 122.31733 | 35299 ft | 467 kts | 6° |
| 2026-04-23 09:55 | 9.30647 | 122.32095 | 35435 ft | 468 kts | 6° |
| 2026-04-23 09:55 | 9.33913 | 122.32461 | 35584 ft | 468 kts | 6° |
| 2026-04-23 09:55 | 9.37142 | 122.32823 | 35710 ft | 469 kts | 6° |
| 2026-04-23 09:55 | 9.40392 | 122.33187 | 35822 ft | 470 kts | 6° |
| 2026-04-23 09:56 | 9.43692 | 122.33556 | 35821 ft | 471 kts | 6° |
| 2026-04-23 09:56 | 9.50188 | 122.34284 | 35833 ft | 470 kts | 6° |
| 2026-04-23 09:57 | 9.56727 | 122.35017 | 35833 ft | 471 kts | 6° |
| 2026-04-23 09:57 | 9.63242 | 122.35748 | 35830 ft | 471 kts | 6° |
| 2026-04-23 09:58 | 9.69768 | 122.36480 | 35833 ft | 470 kts | 6° |
| 2026-04-23 09:58 | 9.76325 | 122.37215 | 35839 ft | 470 kts | 6° |
| 2026-04-23 09:59 | 9.82856 | 122.37946 | 35835 ft | 471 kts | 6° |
| 2026-04-23 09:59 | 9.89368 | 122.38675 | 35837 ft | 470 kts | 5° |
| 2026-04-23 10:00 | 9.95908 | 122.39407 | 35841 ft | 470 kts | 5° |
| 2026-04-23 10:00 | 10.02427 | 122.40138 | 35839 ft | 470 kts | 5° |
| 2026-04-23 10:01 | 10.08933 | 122.40867 | 35844 ft | 470 kts | 5° |
| 2026-04-23 10:01 | 10.15465 | 122.41597 | 35840 ft | 470 kts | 5° |
| 2026-04-23 10:02 | 10.21980 | 122.42326 | 35839 ft | 471 kts | 5° |
| 2026-04-23 10:02 | 10.28527 | 122.43061 | 35842 ft | 470 kts | 5° |
| 2026-04-23 10:03 | 10.35053 | 122.43793 | 35844 ft | 470 kts | 5° |
| 2026-04-23 10:03 | 10.41567 | 122.44525 | 35846 ft | 470 kts | 5° |
| 2026-04-23 10:04 | 10.48101 | 122.45259 | 35845 ft | 469 kts | 5° |
| 2026-04-23 10:04 | 10.54586 | 122.45986 | 35843 ft | 469 kts | 5° |
| 2026-04-23 10:05 | 10.61119 | 122.46720 | 35848 ft | 469 kts | 5° |
| 2026-04-23 10:05 | 10.67644 | 122.47454 | 35850 ft | 470 kts | 5° |
| 2026-04-23 10:06 | 10.74172 | 122.48167 | 35849 ft | 469 kts | 3° |
| 2026-04-23 10:06 | 10.80667 | 122.48173 | 35850 ft | 466 kts | 353° |
| 2026-04-23 10:07 | 10.87088 | 122.47138 | 35856 ft | 464 kts | 345° |
| 2026-04-23 10:07 | 10.93250 | 122.45094 | 35863 ft | 462 kts | 336° |
| 2026-04-23 10:08 | 10.99192 | 122.42527 | 35874 ft | 462 kts | 335° |
| 2026-04-23 10:08 | 11.05132 | 122.39934 | 35887 ft | 462 kts | 335° |
| 2026-04-23 10:09 | 11.14043 | 122.36079 | 35897 ft | 461 kts | 335° |
| 2026-04-23 10:09 | 11.19965 | 122.33531 | 35896 ft | 461 kts | 335° |
| 2026-04-23 10:10 | 11.25880 | 122.30980 | 35895 ft | 461 kts | 335° |
| 2026-04-23 10:10 | 11.31822 | 122.28410 | 35898 ft | 461 kts | 335° |
| 2026-04-23 10:11 | 11.37707 | 122.25859 | 35900 ft | 460 kts | 335° |
| 2026-04-23 10:11 | 11.43621 | 122.23295 | 35897 ft | 461 kts | 335° |
| 2026-04-23 10:12 | 11.49576 | 122.20710 | 35889 ft | 461 kts | 335° |
| 2026-04-23 10:12 | 11.55488 | 122.18143 | 35880 ft | 460 kts | 335° |
| 2026-04-23 10:13 | 11.61396 | 122.15578 | 35871 ft | 460 kts | 335° |
| 2026-04-23 10:13 | 11.67292 | 122.13017 | 35863 ft | 460 kts | 335° |
| 2026-04-23 10:14 | 11.73132 | 122.10478 | 35856 ft | 460 kts | 335° |
| 2026-04-23 10:14 | 11.78929 | 122.07957 | 35851 ft | 460 kts | 335° |
| 2026-04-23 10:15 | 11.84845 | 122.05383 | 35848 ft | 460 kts | 335° |
| 2026-04-23 10:15 | 11.90729 | 122.02821 | 35846 ft | 459 kts | 335° |
| 2026-04-23 10:16 | 11.96593 | 122.00268 | 35844 ft | 459 kts | 335° |
| 2026-04-23 10:16 | 12.02504 | 121.97691 | 35844 ft | 459 kts | 335° |
| 2026-04-23 10:17 | 12.08392 | 121.95122 | 35844 ft | 459 kts | 335° |
| 2026-04-23 10:17 | 12.14300 | 121.92552 | 35844 ft | 459 kts | 335° |
| 2026-04-23 10:18 | 12.20206 | 121.89984 | 35845 ft | 459 kts | 335° |
| 2026-04-23 10:18 | 12.26091 | 121.87412 | 35845 ft | 460 kts | 335° |
| 2026-04-23 10:19 | 12.31997 | 121.84826 | 35846 ft | 460 kts | 335° |
| 2026-04-23 10:19 | 12.37886 | 121.82252 | 35846 ft | 460 kts | 335° |
| 2026-04-23 10:20 | 12.43765 | 121.79696 | 35847 ft | 460 kts | 335° |
| 2026-04-23 10:20 | 12.49670 | 121.77119 | 35847 ft | 460 kts | 335° |
| 2026-04-23 10:21 | 12.55555 | 121.74544 | 35849 ft | 460 kts | 335° |
| 2026-04-23 10:21 | 12.58509 | 121.73250 | 35742 ft | 456 kts | 335° |
| 2026-04-23 10:21 | 12.61388 | 121.71989 | 35215 ft | 452 kts | 335° |
| 2026-04-23 10:22 | 12.64308 | 121.70707 | 34246 ft | 455 kts | 335° |
| 2026-04-23 10:22 | 12.67249 | 121.69415 | 33116 ft | 461 kts | 335° |
| 2026-04-23 10:22 | 12.70195 | 121.68121 | 32037 ft | 466 kts | 335° |
| 2026-04-23 10:22 | 12.73193 | 121.66805 | 30999 ft | 471 kts | 336° |